createdAt,value
2023-04-07T00:01:24.488Z,63.86
2023-04-07T00:03:48.226Z,63.75
2023-04-07T00:06:12.053Z,63.79
2023-04-07T00:08:37.119Z,64.32
2023-04-07T00:11:01.037Z,64.63
2023-04-07T00:13:24.656Z,66.70
2023-04-07T00:15:48.411Z,64.95
2023-04-07T00:18:12.073Z,65.61
2023-04-07T00:20:35.810Z,63.99
2023-04-07T00:22:59.506Z,65.08
2023-04-07T00:25:24.614Z,65.03
2023-04-07T00:27:48.265Z,64.35
2023-04-07T00:30:12.664Z,65.74
2023-04-07T00:32:36.656Z,66.35
2023-04-07T00:35:02.241Z,65.81
2023-04-07T00:37:26.625Z,65.00
2023-04-07T00:39:51.527Z,65.46
2023-04-07T00:42:17.182Z,64.77
2023-04-07T00:44:40.940Z,64.53
2023-04-07T00:47:05.316Z,64.88
2023-04-07T00:49:29.542Z,65.10
2023-04-07T00:51:53.149Z,64.50
2023-04-07T00:54:17.370Z,65.31
2023-04-07T00:56:43.197Z,66.04
2023-04-07T00:59:08.957Z,64.99
2023-04-07T01:01:39.118Z,66.10
2023-04-07T01:04:09.986Z,65.24
2023-04-07T01:06:42.226Z,68.92
2023-04-07T01:09:09.548Z,67.56
2023-04-07T01:11:41.940Z,66.04
2023-04-07T01:14:11.363Z,65.72
2023-04-07T01:16:44.901Z,65.91
2023-04-07T01:19:18.160Z,66.58
2023-04-07T01:21:54.414Z,66.54
2023-04-07T01:24:40.963Z,67.05
2023-04-07T01:27:22.838Z,66.07
2023-04-07T01:29:50.604Z,66.63
2023-04-07T01:32:15.002Z,66.67
2023-04-07T01:34:39.961Z,67.12
2023-04-07T01:37:04.498Z,67.71
2023-04-07T01:39:29.443Z,66.98
2023-04-07T01:41:54.617Z,66.23
2023-04-07T01:44:19.153Z,67.04
2023-04-07T01:46:44.243Z,67.34
2023-04-07T01:49:08.884Z,67.24
2023-04-07T01:51:33.447Z,67.82
2023-04-07T01:53:57.707Z,66.84
2023-04-07T01:56:21.524Z,67.43
2023-04-07T01:58:48.595Z,67.24
2023-04-07T02:01:15.872Z,67.74
2023-04-07T02:04:01.896Z,67.53
2023-04-07T02:06:34.345Z,67.76
2023-04-07T02:09:04.573Z,67.53
2023-04-07T02:11:28.897Z,66.91
2023-04-07T02:13:58.182Z,66.39
2023-04-07T02:16:24.674Z,66.49
2023-04-07T02:18:50.872Z,66.88
2023-04-07T02:21:16.585Z,66.86
2023-04-07T02:23:42.357Z,65.63
2023-04-07T02:26:06.785Z,66.11
2023-04-07T02:28:30.609Z,65.85
2023-04-07T02:30:54.301Z,66.67
2023-04-07T02:33:18.011Z,66.98
2023-04-07T02:35:43.142Z,66.36
2023-04-07T02:38:06.778Z,68.02
2023-04-07T02:40:32.696Z,66.75
2023-04-07T02:42:56.329Z,67.22
2023-04-07T02:45:20.037Z,67.31
2023-04-07T02:47:43.825Z,69.75
2023-04-07T02:50:09.099Z,66.85
2023-04-07T02:52:34.406Z,67.89
2023-04-07T02:55:01.154Z,69.86
2023-04-07T02:57:25.452Z,68.00
2023-04-07T02:59:52.251Z,67.28
2023-04-07T03:02:16.115Z,66.42
2023-04-07T03:04:40.071Z,67.89
2023-04-07T03:07:03.861Z,67.70
2023-04-07T03:09:30.793Z,68.97
2023-04-07T03:11:54.461Z,67.99
2023-04-07T03:14:18.216Z,65.85
2023-04-07T03:16:44.667Z,66.85
2023-04-07T03:19:10.947Z,68.84
2023-04-07T03:21:40.224Z,69.15
2023-04-07T03:24:04.050Z,67.54
2023-04-07T03:26:29.149Z,67.53
2023-04-07T03:28:53.709Z,67.30
2023-04-07T03:31:17.914Z,67.40
2023-04-07T03:33:42.353Z,68.21
2023-04-07T03:36:06.935Z,67.84
2023-04-07T03:38:30.958Z,67.89
2023-04-07T03:40:58.165Z,67.21
2023-04-07T03:43:23.245Z,68.35
2023-04-07T03:45:47.229Z,69.33
2023-04-07T03:48:12.399Z,69.50
2023-04-07T03:50:45.346Z,67.56
2023-04-07T03:53:14.005Z,66.47
2023-04-07T03:55:38.557Z,69.33
2023-04-07T03:58:09.912Z,68.18
2023-04-07T04:00:36.192Z,68.24
2023-04-07T04:03:04.655Z,67.85
2023-04-07T04:05:30.072Z,67.65
2023-04-07T04:07:54.062Z,67.62
2023-04-07T04:10:19.591Z,68.31
2023-04-07T04:12:47.309Z,68.40
2023-04-07T04:15:12.178Z,69.12
2023-04-07T04:17:38.067Z,68.13
2023-04-07T04:20:02.533Z,68.37
2023-04-07T04:22:37.901Z,68.38
2023-04-07T04:25:01.843Z,66.41
2023-04-07T04:27:25.695Z,67.88
2023-04-07T04:29:56.412Z,68.03
2023-04-07T04:32:31.101Z,68.86
2023-04-07T04:34:56.482Z,68.86
2023-04-07T04:37:21.556Z,69.64
2023-04-07T04:39:45.400Z,68.48
2023-04-07T04:42:10.943Z,67.63
2023-04-07T04:44:34.632Z,68.11
2023-04-07T04:47:00.263Z,67.18
2023-04-07T04:49:24.330Z,67.28
2023-04-07T04:51:50.337Z,68.17
2023-04-07T04:54:14.371Z,68.81
2023-04-07T04:56:38.218Z,68.67
2023-04-07T04:59:02.738Z,68.54
2023-04-07T05:01:48.977Z,67.65
2023-04-07T05:04:14.315Z,68.72
2023-04-07T05:06:44.043Z,68.83
2023-04-07T05:09:11.444Z,68.25
2023-04-07T05:11:42.766Z,69.35
2023-04-07T05:14:06.607Z,68.55
2023-04-07T05:16:30.415Z,69.59
2023-04-07T05:18:54.603Z,68.33
2023-04-07T05:21:20.215Z,68.34
2023-04-07T05:23:44.339Z,68.42
2023-04-07T05:26:09.825Z,67.57
2023-04-07T05:28:33.733Z,67.66
2023-04-07T05:31:02.465Z,67.79
2023-04-07T05:33:29.079Z,68.39
2023-04-07T05:35:53.276Z,68.71
2023-04-07T05:38:17.238Z,68.23
2023-04-07T05:40:42.496Z,67.65
2023-04-07T05:43:10.776Z,67.55
2023-04-07T05:45:34.650Z,67.50
2023-04-07T05:47:58.666Z,67.29
2023-04-07T05:50:29.204Z,66.94
2023-04-07T05:52:55.711Z,66.93
2023-04-07T05:55:22.891Z,66.93
2023-04-07T05:57:47.663Z,66.91
2023-04-07T06:00:16.396Z,66.38
2023-04-07T06:02:44.644Z,66.15
2023-04-07T06:05:13.985Z,67.15
2023-04-07T06:07:37.830Z,65.92
2023-04-07T06:10:01.669Z,65.29
2023-04-07T06:12:25.657Z,65.30
2023-04-07T06:14:54.409Z,65.13
2023-04-07T06:17:20.744Z,65.33
2023-04-07T06:19:44.822Z,66.06
2023-04-07T06:22:08.575Z,65.32
2023-04-07T06:24:33.969Z,66.54
2023-04-07T06:26:59.046Z,65.04
2023-04-07T06:29:22.778Z,65.67
2023-04-07T06:31:46.629Z,64.74
2023-04-07T06:34:11.840Z,65.50
2023-04-07T06:36:35.806Z,65.65
2023-04-07T06:38:59.743Z,64.21
2023-04-07T06:41:23.736Z,64.24
2023-04-07T06:43:51.364Z,64.01
2023-04-07T06:46:15.145Z,63.67
2023-04-07T06:48:38.760Z,63.56
2023-04-07T06:51:03.915Z,63.30
2023-04-07T06:53:27.573Z,62.56
2023-04-07T06:55:51.233Z,62.75
2023-04-07T06:58:14.867Z,62.04
2023-04-07T07:00:38.575Z,62.18
2023-04-07T07:03:02.812Z,61.71
2023-04-07T07:05:27.313Z,62.63
2023-04-07T07:07:52.614Z,61.40
2023-04-07T07:10:16.377Z,60.40
2023-04-07T07:12:40.060Z,60.24
2023-04-07T07:15:04.286Z,60.46
2023-04-07T07:17:27.938Z,60.08
2023-04-07T07:19:51.608Z,59.62
2023-04-07T07:22:15.216Z,58.16
2023-04-07T07:24:40.408Z,59.27
2023-04-07T07:27:04.067Z,59.20
2023-04-07T07:29:27.731Z,59.03
2023-04-07T07:31:51.378Z,56.75
2023-04-07T07:34:15.068Z,57.12
2023-04-07T07:36:38.715Z,56.12
2023-04-07T07:39:02.442Z,57.05
2023-04-07T07:41:27.850Z,54.44
2023-04-07T07:43:51.974Z,54.24
2023-04-07T07:46:15.675Z,53.41
2023-04-07T07:48:39.389Z,54.21
2023-04-07T07:51:03.172Z,52.83
2023-04-07T07:53:26.972Z,52.29
2023-04-07T07:55:50.762Z,52.08
2023-04-07T07:58:15.952Z,51.17
2023-04-07T08:00:39.607Z,50.72
2023-04-07T08:03:03.440Z,50.56
2023-04-07T08:05:27.358Z,49.49
2023-04-07T08:07:53.326Z,50.36
2023-04-07T08:10:17.792Z,48.25
2023-04-07T08:12:41.598Z,49.87
2023-04-07T08:15:09.828Z,47.20
2023-04-07T08:17:33.658Z,48.50
2023-04-07T08:19:57.254Z,46.65
2023-04-07T08:22:21.258Z,47.04
2023-04-07T08:24:44.863Z,46.72
2023-04-07T08:27:08.592Z,46.54
2023-04-07T08:29:32.411Z,46.75
2023-04-07T08:31:57.720Z,46.39
2023-04-07T08:34:21.497Z,46.24
2023-04-07T08:36:45.205Z,48.03
2023-04-07T08:39:08.924Z,47.75
2023-04-07T08:41:39.459Z,48.07
2023-04-07T08:44:03.764Z,48.01
2023-04-07T08:46:27.544Z,48.57
2023-04-07T08:48:54.269Z,48.28
2023-04-07T08:51:23.811Z,47.97
2023-04-07T08:53:51.527Z,47.16
2023-04-07T08:56:16.025Z,46.27
2023-04-07T08:58:39.716Z,45.86
2023-04-07T09:01:06.135Z,46.78
2023-04-07T09:03:32.638Z,45.83
2023-04-07T09:05:58.624Z,45.88
2023-04-07T09:08:22.229Z,44.74
2023-04-07T09:10:45.975Z,45.25
2023-04-07T09:13:09.829Z,45.73
2023-04-07T09:15:34.015Z,46.59
2023-04-07T09:17:58.717Z,44.69
2023-04-07T09:20:22.711Z,46.40
2023-04-07T09:22:48.101Z,44.87
2023-04-07T09:25:15.019Z,44.51
2023-04-07T09:27:38.726Z,43.48
2023-04-07T09:30:14.707Z,43.73
2023-04-07T09:32:39.798Z,43.24
2023-04-07T09:35:03.524Z,44.22
2023-04-07T09:37:27.220Z,44.99
2023-04-07T09:39:54.744Z,43.90
2023-04-07T09:42:18.613Z,44.33
2023-04-07T09:44:42.493Z,44.54
2023-04-07T09:47:06.402Z,43.98
2023-04-07T09:49:30.102Z,44.40
2023-04-07T09:51:59.858Z,43.60
2023-04-07T09:54:36.046Z,44.33
2023-04-07T09:57:03.204Z,45.13
2023-04-07T09:59:28.136Z,44.90
2023-04-07T10:01:53.846Z,44.32
2023-04-07T10:04:19.443Z,44.70
2023-04-07T10:06:44.219Z,43.99
2023-04-07T10:09:10.334Z,44.38
2023-04-07T10:11:34.482Z,44.74
2023-04-07T10:13:59.924Z,45.08
2023-04-07T10:16:25.098Z,45.60
2023-04-07T10:18:51.348Z,45.30
2023-04-07T10:21:18.254Z,45.55
2023-04-07T10:23:58.130Z,46.47
2023-04-07T10:26:25.083Z,46.45
2023-04-07T10:28:52.173Z,47.23
2023-04-07T10:31:18.506Z,49.08
2023-04-07T10:33:52.038Z,50.40
2023-04-07T10:36:16.145Z,50.48
2023-04-07T10:38:39.824Z,52.92
2023-04-07T10:41:36.993Z,55.06
2023-04-07T10:44:00.776Z,57.42
2023-04-07T10:46:26.014Z,57.58
2023-04-07T10:49:10.617Z,59.67
2023-04-07T10:51:34.328Z,62.71
2023-04-07T10:54:23.290Z,64.50
2023-04-07T10:57:15.939Z,66.75
2023-04-07T10:59:43.466Z,66.34
2023-04-07T11:02:35.210Z,67.32
2023-04-07T11:04:59.115Z,70.49
2023-04-07T11:08:02.822Z,66.82
2023-04-07T11:10:27.354Z,64.62
2023-04-07T11:13:08.413Z,68.15
2023-04-07T11:15:32.170Z,69.48
2023-04-07T11:18:19.486Z,71.08
2023-04-07T11:20:46.405Z,71.30
2023-04-07T11:23:10.244Z,70.78
2023-04-07T11:25:35.596Z,72.86
2023-04-07T11:27:59.429Z,70.42
2023-04-07T11:30:23.192Z,74.08
2023-04-07T11:32:51.492Z,72.05
2023-04-07T11:35:16.821Z,72.70
2023-04-07T11:37:40.697Z,74.74
2023-04-07T11:40:04.481Z,76.27
2023-04-07T11:42:35.060Z,76.00
2023-04-07T11:44:58.950Z,75.78
2023-04-07T11:47:22.745Z,74.79
2023-04-07T11:49:48.302Z,76.96
2023-04-07T11:52:13.707Z,76.99
2023-04-07T11:54:46.937Z,76.15
2023-04-07T11:57:12.907Z,77.06
2023-04-07T11:59:37.209Z,76.78
2023-04-07T12:02:01.101Z,78.57
2023-04-07T12:04:25.131Z,79.91
2023-04-07T12:06:50.630Z,76.45
2023-04-07T12:09:30.763Z,78.79
2023-04-07T12:11:54.925Z,78.41
2023-04-07T12:14:18.998Z,80.82
2023-04-07T12:16:42.764Z,78.78
2023-04-07T12:19:06.492Z,77.35
2023-04-07T12:21:30.176Z,76.67
2023-04-07T12:23:53.792Z,76.77
2023-04-07T12:26:21.138Z,78.95
2023-04-07T12:28:46.128Z,77.34
2023-04-07T12:31:10.277Z,76.23
2023-04-07T12:33:34.297Z,76.93
2023-04-07T12:35:59.014Z,77.50
2023-04-07T12:38:22.950Z,78.56
2023-04-07T12:40:46.741Z,77.30
2023-04-07T12:43:11.997Z,77.92
2023-04-07T12:45:36.007Z,77.75
2023-04-07T12:47:59.987Z,78.96
2023-04-07T12:50:25.202Z,76.98
2023-04-07T12:52:48.893Z,79.12
2023-04-07T12:55:14.317Z,77.89
2023-04-07T12:57:38.332Z,77.44
2023-04-07T13:00:03.475Z,76.62
2023-04-07T13:02:27.259Z,77.87
2023-04-07T13:04:51.117Z,77.81
2023-04-07T13:07:15.115Z,77.13
2023-04-07T13:09:39.125Z,77.35
2023-04-07T13:12:03.018Z,77.73
2023-04-07T13:14:26.798Z,76.45
2023-04-07T13:16:52.047Z,77.45
2023-04-07T13:19:16.287Z,76.64
2023-04-07T13:24:07.123Z,77.98
2023-04-07T13:26:31.309Z,77.84
2023-04-07T13:28:55.204Z,77.91
2023-04-07T13:31:19.032Z,77.45
2023-04-07T13:33:44.502Z,78.46
2023-04-07T13:36:08.439Z,77.03
2023-04-07T13:38:32.923Z,78.08
2023-04-07T13:40:56.707Z,78.67
2023-04-07T13:43:20.483Z,79.18
2023-04-07T13:45:44.293Z,77.71
2023-04-07T13:48:08.260Z,77.66
2023-04-07T13:50:33.364Z,76.94
2023-04-07T13:52:57.226Z,78.39
2023-04-07T13:55:21.654Z,78.51
2023-04-07T13:57:45.397Z,78.40
2023-04-07T14:00:10.585Z,79.46
2023-04-07T14:02:34.345Z,77.27
2023-04-07T14:04:58.279Z,77.94
2023-04-07T14:07:24.029Z,78.65
2023-04-07T14:09:48.324Z,77.40
2023-04-07T14:12:12.030Z,77.35
2023-04-07T14:14:37.648Z,77.68
2023-04-07T14:17:02.073Z,77.49
2023-04-07T14:19:26.057Z,78.06
2023-04-07T14:21:49.755Z,78.28
2023-04-07T14:24:14.738Z,79.14
2023-04-07T14:26:38.413Z,78.20
2023-04-07T14:29:02.306Z,79.70
2023-04-07T14:31:26.164Z,79.59
2023-04-07T14:33:51.166Z,79.64
2023-04-07T14:36:17.458Z,80.39
2023-04-07T14:38:41.186Z,79.98
2023-04-07T14:41:09.982Z,79.91
2023-04-07T14:43:34.035Z,80.02
2023-04-07T14:45:59.795Z,80.15
2023-04-07T14:48:23.616Z,81.42
2023-04-07T14:50:50.130Z,79.58
2023-04-07T14:53:17.555Z,79.08
2023-04-07T14:55:43.063Z,79.46
2023-04-07T14:58:08.322Z,79.89
2023-04-07T15:00:31.969Z,79.38
2023-04-07T15:02:56.388Z,78.47
2023-04-07T15:05:20.907Z,77.77
2023-04-07T15:07:45.933Z,79.92
2023-04-07T15:10:10.759Z,80.21
2023-04-07T15:12:34.396Z,80.16
2023-04-07T15:14:59.504Z,81.87
2023-04-07T15:17:30.280Z,80.89
2023-04-07T15:20:00.351Z,80.92
2023-04-07T15:22:23.952Z,79.25
2023-04-07T15:24:47.875Z,80.17
2023-04-07T15:27:12.040Z,81.76
2023-04-07T15:29:36.396Z,83.25
2023-04-07T15:32:01.479Z,81.25
2023-04-07T15:34:25.220Z,82.99
2023-04-07T15:36:49.432Z,83.24
2023-04-07T15:39:13.250Z,82.85
2023-04-07T15:41:37.017Z,81.01
2023-04-07T15:44:02.037Z,79.52
2023-04-07T15:46:25.800Z,80.94
2023-04-07T15:48:51.903Z,81.66
2023-04-07T15:51:15.741Z,80.54
2023-04-07T15:53:39.453Z,82.00
2023-04-07T15:56:03.229Z,81.24
2023-04-07T15:58:26.877Z,81.93
2023-04-07T16:00:51.028Z,82.89
2023-04-07T16:03:15.023Z,82.71
2023-04-07T16:05:44.942Z,85.10
2023-04-07T16:08:09.090Z,83.94
2023-04-07T16:10:33.112Z,84.75
2023-04-07T16:12:56.928Z,85.79
2023-04-07T16:15:36.507Z,85.02
2023-04-07T16:18:07.236Z,85.48
2023-04-07T16:20:30.851Z,84.59
2023-04-07T16:22:56.014Z,86.13
2023-04-07T16:25:20.161Z,86.91
2023-04-07T16:27:45.003Z,85.85
2023-04-07T16:30:11.032Z,85.72
2023-04-07T16:32:35.256Z,87.05
2023-04-07T16:34:58.972Z,85.85
2023-04-07T16:37:22.818Z,86.46
2023-04-07T16:39:47.834Z,86.18
2023-04-07T16:42:11.747Z,84.35
2023-04-07T16:44:35.469Z,87.18
2023-04-07T16:46:59.279Z,85.66
2023-04-07T16:49:23.370Z,85.84
2023-04-07T16:51:47.197Z,86.49
2023-04-07T16:54:10.931Z,85.31
2023-04-07T16:56:36.390Z,85.65
2023-04-07T16:59:01.448Z,85.83
2023-04-07T17:01:29.760Z,85.94
2023-04-07T17:03:53.854Z,88.15
2023-04-07T17:06:17.793Z,88.08
2023-04-07T17:08:41.469Z,88.04
2023-04-07T17:11:08.043Z,84.90
2023-04-07T17:13:33.081Z,85.86
2023-04-07T17:15:56.850Z,87.28
2023-04-07T17:18:20.494Z,87.97
2023-04-07T17:20:44.233Z,88.69
2023-04-07T17:23:09.325Z,89.34
2023-04-07T17:25:33.023Z,87.32
2023-04-07T17:27:56.674Z,87.23
2023-04-07T17:30:22.107Z,88.46
2023-04-07T17:32:45.802Z,87.62
2023-04-07T17:35:10.404Z,89.23
2023-04-07T17:37:34.330Z,88.71
2023-04-07T17:39:58.079Z,88.61
2023-04-07T17:42:21.672Z,88.24
2023-04-07T17:44:45.645Z,88.79
2023-04-07T17:47:10.824Z,88.63
2023-04-07T17:49:34.554Z,89.78
2023-04-07T17:51:58.252Z,90.32
2023-04-07T17:54:22.034Z,89.86
2023-04-07T17:56:46.139Z,88.93
2023-04-07T17:59:09.773Z,87.99
2023-04-07T18:01:33.575Z,89.81
2023-04-07T18:04:00.280Z,89.68
2023-04-07T18:06:24.037Z,88.89
2023-04-07T18:08:48.489Z,89.72
2023-04-07T18:11:12.111Z,91.41
2023-04-07T18:13:35.860Z,90.94
2023-04-07T18:15:59.769Z,90.99
2023-04-07T18:18:23.534Z,91.28
2023-04-07T18:20:48.652Z,89.75
2023-04-07T18:23:12.560Z,89.90
2023-04-07T18:25:36.581Z,90.62
2023-04-07T18:28:01.998Z,90.32
2023-04-07T18:30:25.692Z,90.75
2023-04-07T18:32:49.612Z,89.95
2023-04-07T18:35:14.578Z,91.45
2023-04-07T18:37:40.642Z,90.40
2023-04-07T18:40:05.748Z,90.03
2023-04-07T18:42:29.491Z,90.57
2023-04-07T18:44:53.173Z,90.29
2023-04-07T18:47:17.378Z,90.97
2023-04-07T18:49:41.122Z,90.62
2023-04-07T18:52:05.206Z,91.42
2023-04-07T18:54:30.516Z,93.13
2023-04-07T18:56:54.318Z,92.53
2023-04-07T18:59:18.050Z,90.83
2023-04-07T19:01:42.656Z,91.29
2023-04-07T19:04:06.771Z,91.45
2023-04-07T19:06:31.996Z,91.70
2023-04-07T19:08:55.821Z,90.22
2023-04-07T19:11:21.440Z,91.70
2023-04-07T19:13:45.138Z,91.41
2023-04-07T19:16:09.006Z,91.21
2023-04-07T19:18:32.782Z,90.51
2023-04-07T19:20:57.091Z,90.73
2023-04-07T19:23:20.797Z,90.64
2023-04-07T19:25:45.984Z,91.37
2023-04-07T19:28:11.303Z,91.77
2023-04-07T19:30:35.374Z,91.70
2023-04-07T19:32:59.092Z,91.49
2023-04-07T19:35:23.129Z,92.22
2023-04-07T19:37:48.112Z,91.61
2023-04-07T19:40:12.836Z,91.70
2023-04-07T19:42:38.088Z,91.44
2023-04-07T19:45:07.326Z,93.70
2023-04-07T19:47:31.317Z,93.91
2023-04-07T19:49:55.411Z,94.11
2023-04-07T19:52:19.170Z,92.96
2023-04-07T19:54:42.948Z,92.61
2023-04-07T19:57:06.747Z,93.57
2023-04-07T19:59:30.481Z,91.65
2023-04-07T20:01:56.014Z,92.73
2023-04-07T20:04:19.838Z,91.42
2023-04-07T20:06:43.525Z,90.62
2023-04-07T20:09:07.513Z,91.76
2023-04-07T20:11:31.193Z,90.83
2023-04-07T20:13:56.214Z,90.83
2023-04-07T20:16:20.056Z,90.96
2023-04-07T20:18:45.372Z,91.22
2023-04-07T20:21:10.008Z,90.80
2023-04-07T20:23:34.502Z,91.67
2023-04-07T20:25:58.220Z,90.70
2023-04-07T20:28:22.215Z,89.77
2023-04-07T20:30:45.965Z,91.70
2023-04-07T20:33:09.830Z,89.16
2023-04-07T20:35:35.199Z,88.50
2023-04-07T20:38:00.237Z,90.22
2023-04-07T20:40:23.973Z,90.31
2023-04-07T20:42:47.784Z,90.98
2023-04-07T20:45:12.552Z,91.11
2023-04-07T20:47:37.016Z,92.05
2023-04-07T20:50:00.739Z,89.26
2023-04-07T20:52:27.284Z,91.03
2023-04-07T20:54:51.124Z,90.26
2023-04-07T20:57:14.952Z,91.88
2023-04-07T20:59:38.670Z,91.32
2023-04-07T21:02:02.659Z,92.78
2023-04-07T21:04:26.731Z,91.85
2023-04-07T21:06:50.655Z,92.11
2023-04-07T21:09:15.766Z,91.34
2023-04-07T21:11:39.693Z,91.96
2023-04-07T21:14:03.440Z,92.41
2023-04-07T21:16:27.204Z,91.67
2023-04-07T21:18:51.055Z,91.99
2023-04-07T21:21:14.998Z,93.21
2023-04-07T21:23:38.734Z,92.41
2023-04-07T21:26:04.779Z,94.34
2023-04-07T21:28:28.487Z,95.20
2023-04-07T21:30:53.465Z,94.67
2023-04-07T21:33:17.227Z,95.23
2023-04-07T21:35:41.345Z,95.13
2023-04-07T21:38:05.121Z,93.69
2023-04-07T21:40:29.103Z,94.33
2023-04-07T21:42:54.202Z,94.83
2023-04-07T21:45:18.229Z,92.90
2023-04-07T21:47:42.108Z,93.98
2023-04-07T21:50:07.424Z,95.47
2023-04-07T21:52:31.120Z,95.15
2023-04-07T21:54:54.906Z,93.79
2023-04-07T21:57:18.593Z,94.47
2023-04-07T21:59:43.879Z,94.83
2023-04-07T22:02:07.693Z,94.37
2023-04-07T22:04:32.163Z,93.21
2023-04-07T22:06:56.497Z,94.10
2023-04-07T22:09:20.282Z,94.47
2023-04-07T22:11:44.045Z,94.85
2023-04-07T22:14:07.862Z,93.38
2023-04-07T22:16:33.058Z,94.29
2023-04-07T22:18:56.886Z,94.31
2023-04-07T22:21:21.131Z,93.17
2023-04-07T22:23:45.291Z,93.16
2023-04-07T22:26:09.014Z,93.87
2023-04-07T22:28:33.440Z,93.76
2023-04-07T22:30:58.154Z,94.14
2023-04-07T22:33:23.345Z,95.00
2023-04-07T22:35:47.126Z,95.01
2023-04-07T22:38:10.953Z,95.18
2023-04-07T22:40:34.809Z,95.54
2023-04-07T22:42:58.586Z,94.39
2023-04-07T22:45:22.301Z,95.47
2023-04-07T22:47:46.129Z,94.35
2023-04-07T22:50:12.856Z,95.10
2023-04-07T22:52:36.725Z,96.33
2023-04-07T22:55:00.503Z,95.49
2023-04-07T22:57:24.243Z,95.14
2023-04-07T22:59:47.963Z,97.09
2023-04-07T23:02:12.090Z,95.45
2023-04-07T23:04:35.834Z,95.37
2023-04-07T23:07:01.338Z,95.38
2023-04-07T23:09:25.090Z,94.70
2023-04-07T23:11:48.911Z,96.86
2023-04-07T23:14:12.594Z,95.95
2023-04-07T23:16:36.604Z,97.17
2023-04-07T23:19:01.135Z,94.70
2023-04-07T23:21:24.860Z,95.37
2023-04-07T23:23:50.592Z,97.82
2023-04-07T23:26:14.384Z,95.78
2023-04-07T23:28:38.276Z,95.57
2023-04-07T23:31:02.881Z,94.20
2023-04-07T23:33:26.543Z,93.97
2023-04-07T23:35:50.335Z,95.22
2023-04-07T23:38:14.110Z,95.88
2023-04-07T23:40:39.387Z,96.28
2023-04-07T23:43:03.085Z,96.44
2023-04-07T23:45:26.884Z,97.24
2023-04-07T23:47:50.692Z,96.95
2023-04-07T23:50:14.762Z,96.42
2023-04-07T23:52:38.514Z,94.92
2023-04-07T23:55:02.322Z,94.90
2023-04-07T23:57:27.512Z,95.50
2023-04-07T23:59:51.307Z,94.75
